Neuburg — 5BQJ2 — position and weather

sailwx.info

Track history (hours):
 
Tides and Currents Weather Stations Pressure Air Temp Water Temp Dewpoint Dewpoint Depression Visibility Wind Speed Wind Dir Waves Ship Positions

Neuburg

Last reported at 2015-Mar-31 09:29 UTC. Time now 2015-Mar-31 09:42 UTC.
Position N 28°29' W 016°13'.

Length 142 m; draft 6.8 m.

Type: Cargo ship. MMSI: 212740000.

Date/timePositionNaut miles runAvg speedWind from/ knotsBaromVisibWave heightAir tempDewpointWater temp
2015-Mar-31 09:29N 28°29' W 016°13'0 0.0
2015-Mar-31 08:29N 28°29' W 016°13'0 0.0
2015-Mar-31 07:29N 28°29' W 016°13'0 0.0
2015-Mar-31 06:29N 28°29' W 016°13'0 0.0
2015-Mar-31 05:33N 28°29' W 016°13'8 7.9
2015-Mar-31 04:33N 28°27' W 016°05'1313.3
2015-Mar-31 03:34N 28°21' W 015°51'1413.9
2015-Mar-31 02:33N 28°17' W 015°36'1413.5
2015-Mar-31 01:33N 28°13' W 015°22'6 5.7
2015-Mar-31 00:32N 28°08' W 015°25'0 0.0
2015-Mar-30 23:23N 28°08' W 015°25'0 0.0
2015-Mar-30 22:26N 28°08' W 015°25'0 0.0
2015-Mar-30 21:26N 28°08' W 015°25'0 0.0
2015-Mar-30 20:26N 28°08' W 015°25'0 0.0
2015-Mar-30 19:26N 28°08' W 015°25'0 0.2
2015-Mar-30 18:33N 28°08' W 015°25'8 8.2
2015-Mar-30 17:33N 28°11' W 015°17'1817.7
2015-Mar-30 16:33N 28°24' W 015°03'1817.6
2015-Mar-30 15:33N 28°36' W 014°48'2317.4
2015-Mar-30 14:15N 28°52' W 014°29'1517.1
2015-Mar-30 13:21N 29°02' W 014°17'1616.7
2015-Mar-30 12:25N 29°13' W 014°04'1517.2
2015-Mar-30 11:34N 29°24' W 013°52'1717.3
2015-Mar-30 10:34N 29°36' W 013°38'1717.2
2015-Mar-30 09:34N 29°48' W 013°24'1717.1
2015-Mar-30 08:33N 30°00' W 013°10'1717.5
2015-Mar-30 07:34N 30°12' W 012°55'1717.2
2015-Mar-30 06:33N 30°24' W 012°41'1717.2
2015-Mar-30 05:34N 30°36' W 012°27'1817.4
2015-Mar-30 04:32N 30°49' W 012°12'1817.5
2015-Mar-30 03:30N 31°01' W 011°56'1717.5
2015-Mar-30 02:33N 31°12' W 011°42'1717.1
2015-Mar-30 01:34N 31°24' W 011°28'1717.3
2015-Mar-30 00:33N 31°36' W 011°14'1717.2
2015-Mar-29 23:33N 31°49' W 010°59'1817.0
2015-Mar-29 22:30N 32°01' W 010°45'1817.4
2015-Mar-29 21:29N 32°14' W 010°30'3417.2
2015-Mar-29 19:30N 32°37' W 010°00'1617.1
2015-Mar-29 18:33N 32°49' W 009°47'1817.4
2015-Mar-29 17:32N 33°01' W 009°31'3517.4
2015-Mar-29 15:32N 33°25' W 009°01'3617.3
2015-Mar-29 13:26N 33°50' W 008°30'19217.1
2015-Mar-29 02:12N 35°58' W 005°35'914.2
2015-Mar-29 01:33N 35°60' W 005°24'21616.4
2015-Mar-28 12:25N 37°09' W 001°10'1517.0
2015-Mar-28 11:33N 37°19' W 000°56'1817.8
2015-Mar-28 10:34N 37°31' W 000°39'1616.4
2015-Mar-28 09:33N 37°45' W 000°30'1717.0
2015-Mar-28 08:33N 38°02' W 000°25'18 1.6
2015-Mar-27 21:04N 38°20' W 000°30'0 0.0
2015-Mar-27 20:28N 38°20' W 000°30'3 0.6
2015-Mar-27 16:07N 38°18' W 000°28'2 4.3
2015-Mar-27 15:33N 38°16' W 000°26'1717.0
2015-Mar-27 14:33N 37°59' W 000°26'1818.1
2015-Mar-27 13:34N 37°41' W 000°30'1716.5
2015-Mar-27 12:33N 37°27' W 000°41'1817.9
2015-Mar-27 11:33N 37°15' W 000°57'21617.4
2015-Mar-26 23:06N 36°00' W 005°10'1121.0
2015-Mar-26 22:34N 35°58' W 005°24'64415.7
2015-Mar-25 05:32N 29°08' W 015°14'1414.5
2015-Mar-25 04:34N 28°60' W 015°27'1514.7
2015-Mar-25 03:34N 28°50' W 015°40'1514.5
2015-Mar-25 02:34N 28°40' W 015°52'1515.1
2015-Mar-25 01:33N 28°31' W 016°05'7 7.4
2015-Mar-25 00:34N 28°29' W 016°13'0 0.0
2015-Mar-24 23:33N 28°29' W 016°13'0 0.0
2015-Mar-24 22:33N 28°29' W 016°13'0 0.0
2015-Mar-24 21:30N 28°29' W 016°13'0 0.0
2015-Mar-24 20:24N 28°29' W 016°13'0 0.0
2015-Mar-24 19:33N 28°29' W 016°13'0 0.0
2015-Mar-24 18:30N 28°29' W 016°13'2 2.3
2015-Mar-24 17:33N 28°28' W 016°11'1313.3
2015-Mar-24 16:33N 28°25' W 015°57'1313.4
2015-Mar-24 15:33N 28°19' W 015°43'1413.7
2015-Mar-24 14:34N 28°15' W 015°28'9 8.6
2015-Mar-24 13:34N 28°07' W 015°25'1 0.6
2015-Mar-24 12:32N 28°08' W 015°25'0 0.0
2015-Mar-24 11:32N 28°08' W 015°25'0 0.0
2015-Mar-24 10:32N 28°08' W 015°25'0 0.0
2015-Mar-24 09:31N 28°08' W 015°25'0 0.0
2015-Mar-24 08:32N 28°08' W 015°25'0 0.0
2015-Mar-24 07:16N 28°08' W 015°25'0 0.6
2015-Mar-24 06:33N 28°08' W 015°25'1010.2
2015-Mar-24 05:33N 28°14' W 015°16'1312.8
2015-Mar-24 04:33N 28°22' W 015°05'1312.6
2015-Mar-24 03:33N 28°31' W 014°54'1312.6
2015-Mar-24 02:33N 28°40' W 014°44'64116.4
2015-Mar-22 11:33N 35°59' W 005°32'1515.0
2015-Mar-22 10:33N 36°03' W 005°14'21117.1
2015-Mar-21 22:15N 37°12' W 001°06'1217.2
2015-Mar-21 21:33N 37°20' W 000°55'1818.0
2015-Mar-21 20:33N 37°32' W 000°37'1717.3
2015-Mar-21 19:33N 37°47' W 000°29'1817.9
2015-Mar-21 18:33N 38°05' W 000°24'  
Track history (hours):
 
Tides and Currents Weather Stations Pressure Air Temp Water Temp Dewpoint Dewpoint Depression Visibility Wind Speed Wind Dir Waves Ship Positions

Neuburg

Last reported at 2015-Mar-31 09:29 UTC. Time now 2015-Mar-31 09:42 UTC.
Position N 28°29' W 016°13'.

Length 142 m; draft 6.8 m.

Type: Cargo ship. MMSI: 212740000.

Date/timePositionNaut miles runAvg speedWind from/ knotsBaromVisibWave heightAir tempDewpointWater temp
2015-Mar-31 09:29N 28°29' W 016°13'0 0.0
2015-Mar-31 08:29N 28°29' W 016°13'0 0.0
2015-Mar-31 07:29N 28°29' W 016°13'0 0.0
2015-Mar-31 06:29N 28°29' W 016°13'0 0.0
2015-Mar-31 05:33N 28°29' W 016°13'8 7.9
2015-Mar-31 04:33N 28°27' W 016°05'1313.3
2015-Mar-31 03:34N 28°21' W 015°51'1413.9
2015-Mar-31 02:33N 28°17' W 015°36'1413.5
2015-Mar-31 01:33N 28°13' W 015°22'6 5.7
2015-Mar-31 00:32N 28°08' W 015°25'0 0.0
2015-Mar-30 23:23N 28°08' W 015°25'0 0.0
2015-Mar-30 22:26N 28°08' W 015°25'0 0.0
2015-Mar-30 21:26N 28°08' W 015°25'0 0.0
2015-Mar-30 20:26N 28°08' W 015°25'0 0.0
2015-Mar-30 19:26N 28°08' W 015°25'0 0.2
2015-Mar-30 18:33N 28°08' W 015°25'8 8.2
2015-Mar-30 17:33N 28°11' W 015°17'1817.7
2015-Mar-30 16:33N 28°24' W 015°03'1817.6
2015-Mar-30 15:33N 28°36' W 014°48'2317.4
2015-Mar-30 14:15N 28°52' W 014°29'1517.1
2015-Mar-30 13:21N 29°02' W 014°17'1616.7
2015-Mar-30 12:25N 29°13' W 014°04'1517.2
2015-Mar-30 11:34N 29°24' W 013°52'1717.3
2015-Mar-30 10:34N 29°36' W 013°38'1717.2
2015-Mar-30 09:34N 29°48' W 013°24'1717.1
2015-Mar-30 08:33N 30°00' W 013°10'1717.5
2015-Mar-30 07:34N 30°12' W 012°55'1717.2
2015-Mar-30 06:33N 30°24' W 012°41'1717.2
2015-Mar-30 05:34N 30°36' W 012°27'1817.4
2015-Mar-30 04:32N 30°49' W 012°12'1817.5
2015-Mar-30 03:30N 31°01' W 011°56'1717.5
2015-Mar-30 02:33N 31°12' W 011°42'1717.1
2015-Mar-30 01:34N 31°24' W 011°28'1717.3
2015-Mar-30 00:33N 31°36' W 011°14'1717.2
2015-Mar-29 23:33N 31°49' W 010°59'1817.0
2015-Mar-29 22:30N 32°01' W 010°45'1817.4
2015-Mar-29 21:29N 32°14' W 010°30'3417.2
2015-Mar-29 19:30N 32°37' W 010°00'1617.1
2015-Mar-29 18:33N 32°49' W 009°47'1817.4
2015-Mar-29 17:32N 33°01' W 009°31'3517.4
2015-Mar-29 15:32N 33°25' W 009°01'3617.3
2015-Mar-29 13:26N 33°50' W 008°30'19217.1
2015-Mar-29 02:12N 35°58' W 005°35'914.2
2015-Mar-29 01:33N 35°60' W 005°24'21616.4
2015-Mar-28 12:25N 37°09' W 001°10'1517.0
2015-Mar-28 11:33N 37°19' W 000°56'1817.8
2015-Mar-28 10:34N 37°31' W 000°39'1616.4
2015-Mar-28 09:33N 37°45' W 000°30'1717.0
2015-Mar-28 08:33N 38°02' W 000°25'18 1.6
2015-Mar-27 21:04N 38°20' W 000°30'0 0.0
2015-Mar-27 20:28N 38°20' W 000°30'3 0.6
2015-Mar-27 16:07N 38°18' W 000°28'2 4.3
2015-Mar-27 15:33N 38°16' W 000°26'1717.0
2015-Mar-27 14:33N 37°59' W 000°26'1818.1
2015-Mar-27 13:34N 37°41' W 000°30'1716.5
2015-Mar-27 12:33N 37°27' W 000°41'1817.9
2015-Mar-27 11:33N 37°15' W 000°57'21617.4
2015-Mar-26 23:06N 36°00' W 005°10'1121.0
2015-Mar-26 22:34N 35°58' W 005°24'64415.7
2015-Mar-25 05:32N 29°08' W 015°14'1414.5
2015-Mar-25 04:34N 28°60' W 015°27'1514.7
2015-Mar-25 03:34N 28°50' W 015°40'1514.5
2015-Mar-25 02:34N 28°40' W 015°52'1515.1
2015-Mar-25 01:33N 28°31' W 016°05'7 7.4
2015-Mar-25 00:34N 28°29' W 016°13'0 0.0
2015-Mar-24 23:33N 28°29' W 016°13'0 0.0
2015-Mar-24 22:33N 28°29' W 016°13'0 0.0
2015-Mar-24 21:30N 28°29' W 016°13'0 0.0
2015-Mar-24 20:24N 28°29' W 016°13'0 0.0
2015-Mar-24 19:33N 28°29' W 016°13'0 0.0
2015-Mar-24 18:30N 28°29' W 016°13'2 2.3
2015-Mar-24 17:33N 28°28' W 016°11'1313.3
2015-Mar-24 16:33N 28°25' W 015°57'1313.4
2015-Mar-24 15:33N 28°19' W 015°43'1413.7
2015-Mar-24 14:34N 28°15' W 015°28'9 8.6
2015-Mar-24 13:34N 28°07' W 015°25'1 0.6
2015-Mar-24 12:32N 28°08' W 015°25'0 0.0
2015-Mar-24 11:32N 28°08' W 015°25'0 0.0
2015-Mar-24 10:32N 28°08' W 015°25'0 0.0
2015-Mar-24 09:31N 28°08' W 015°25'0 0.0
2015-Mar-24 08:32N 28°08' W 015°25'0 0.0
2015-Mar-24 07:16N 28°08' W 015°25'0 0.6
2015-Mar-24 06:33N 28°08' W 015°25'1010.2
2015-Mar-24 05:33N 28°14' W 015°16'1312.8
2015-Mar-24 04:33N 28°22' W 015°05'1312.6
2015-Mar-24 03:33N 28°31' W 014°54'1312.6
2015-Mar-24 02:33N 28°40' W 014°44'64116.4
2015-Mar-22 11:33N 35°59' W 005°32'1515.0
2015-Mar-22 10:33N 36°03' W 005°14'21117.1
2015-Mar-21 22:15N 37°12' W 001°06'1217.2
2015-Mar-21 21:33N 37°20' W 000°55'1818.0
2015-Mar-21 20:33N 37°32' W 000°37'1717.3
2015-Mar-21 19:33N 37°47' W 000°29'1817.9
2015-Mar-21 18:33N 38°05' W 000°24'  

Dump ship's entire track history